Airfield :
LOGIN :

Register | Disclaimer

   EN    FR    IT 

 










Legend :    VFR   Marginal VFR   IFR   Intensive IFR   Very Intensive IFR
Visi :
Ceiling :
>= 8 km
>= 3000ft
5 to 8 km
1000 to 3000 ft
1500m to 5 km
500 to 1000 ft
800 to 1500m
200 to 500 ft
< 800m
< 200 ft
Symbols :   Thunderstorms  Fog  Heavy snow  Heavy precipitations  Wind > 20 kt
SIGMETs :     Misc.  Thunderstorms  Icing  Turbulence  Mountain Waves  Volcanic Ashes






- Airport Elevation : 28 ft
- IATA code : SOZ


LFKS - Solenzara

CURRENT METAR :
  • 270300Z AUTO 27003KT 220V320 9999 FEW009 BKN140 OVC170 23/18 Q1013

EXPIRED METARs :
  • 270230Z AUTO VRB03KT CAVOK 23/18 Q1013
  • 270200Z AUTO 27005KT 210V320 CAVOK 24/18 Q1014
  • 270130Z AUTO 28006KT 260V320 CAVOK 24/18 Q1014
  • 270100Z AUTO 27006KT 240V300 CAVOK 23/18 Q1014
  • 270030Z AUTO 27005KT 250V310 CAVOK 23/18 Q1014

TAF TAF LFKS
Valid from the 26 at 21:00 until the 27 at 21:00 UTC


262000Z 2621/2721 17003KT 9999 NSC
PROB30
TEMPO 2623/2706 -SHRA FEW050TCU BKN090
BECMG 2707/2708 15010KT
TEMPO 2708/2715 15015G25KT
BECMG 2719/2720 VRB03KT SCT010



MET'MAP, your aeronautical weather chart ! - Copyright ORBIFLY December 2007 - Disclaimer

ORBIFLY MET'MAP TEAM :

Programming & Development : Alexandra Zaïnal
Concept & original design : Baudouin d'Aumeries
Assistance for programming : Marc-Olivier Méhu
Technical & hardware support : Manuel Goepfert

Contact : metmap@orbifly.com




SOURCES & CREDITS :

   NOAA